Time;durP1;ratioP1;P1;durP2;ratioP2;P2;SDS_P1;SDS_P2;PMS_P1;PMS_P2;Temp;Humidity;BMP_temperature;BMP_pressure;BME280_temperature;BME280_humidity;BME280_pressure;Samples;Min_cycle;Max_cycle;Signal;HPM_P1;HPM_P2
2021/07/09 00:02:43;;;;;;;1.65;1.55;;;16.00;91.80;;;;;;4959160;28;20028;-73
2021/07/09 00:05:09;;;;;;;1.58;1.48;;;16.00;91.80;;;;;;4936529;28;20031;-74
2021/07/09 00:07:35;;;;;;;1.63;1.52;;;16.00;91.90;;;;;;4931392;28;20034;-73
2021/07/09 00:10:01;;;;;;;3.15;1.63;;;16.00;91.80;;;;;;4974741;28;20026;-74
2021/07/09 00:12:27;;;;;;;1.60;1.50;;;16.00;91.80;;;;;;4962713;28;20042;-73
2021/07/09 00:14:52;;;;;;;2.20;2.00;;;16.00;91.70;;;;;;4970131;28;20027;-74
2021/07/09 00:17:18;;;;;;;1.63;1.52;;;16.00;91.80;;;;;;4942607;28;20541;-74
2021/07/09 00:19:43;;;;;;;1.83;1.73;;;16.00;91.60;;;;;;4970751;28;20453;-74
2021/07/09 00:22:10;;;;;;;1.92;1.60;;;16.00;91.60;;;;;;4953429;28;20076;-73
2021/07/09 00:24:36;;;;;;;1.85;1.70;;;16.00;91.90;;;;;;4967781;28;20034;-73
2021/07/09 00:27:03;;;;;;;3.03;1.70;;;16.00;91.80;;;;;;4964256;28;21571;-73
2021/07/09 00:29:29;;;;;;;1.58;1.48;;;15.90;92.00;;;;;;4960179;28;20114;-73
2021/07/09 00:31:55;;;;;;;1.63;1.52;;;15.90;91.90;;;;;;4949282;28;20034;-73
2021/07/09 00:34:22;;;;;;;1.83;1.67;;;15.90;92.10;;;;;;4933820;28;20041;-74
2021/07/09 00:36:48;;;;;;;1.58;1.48;;;15.80;91.90;;;;;;4943292;28;20034;-73
2021/07/09 00:39:14;;;;;;;1.92;1.80;;;15.80;92.40;;;;;;4962683;28;20035;-73
2021/07/09 00:41:39;;;;;;;1.48;1.38;;;15.90;92.10;;;;;;4961937;28;20523;-73
2021/07/09 00:44:07;;;;;;;2.63;1.50;;;15.90;92.00;;;;;;4954530;28;20052;-73
2021/07/09 00:46:38;;;;;;;1.92;1.40;;;15.90;92.10;;;;;;4939874;28;20023;-74
2021/07/09 00:49:06;;;;;;;2.83;1.30;;;15.90;92.20;;;;;;4964595;28;20523;-74
2021/07/09 00:51:32;;;;;;;1.90;1.70;;;15.80;92.10;;;;;;4959366;28;20687;-74
2021/07/09 00:53:58;;;;;;;1.92;1.60;;;15.90;92.10;;;;;;4964551;28;20413;-74
2021/07/09 00:56:25;;;;;;;1.98;1.35;;;15.80;92.10;;;;;;4939397;28;20031;-74
2021/07/09 00:58:53;;;;;;;2.65;1.50;;;15.80;92.20;;;;;;4972888;28;20022;-75
2021/07/09 01:01:19;;;;;;;1.70;1.60;;;15.80;92.20;;;;;;4964276;28;20027;-73
2021/07/09 01:03:45;;;;;;;1.85;1.75;;;15.80;92.30;;;;;;4984218;28;20022;-74
2021/07/09 01:06:12;;;;;;;1.70;1.60;;;15.80;92.20;;;;;;4976635;28;20207;-73
2021/07/09 01:08:39;;;;;;;1.88;1.67;;;15.80;92.60;;;;;;4962581;28;20030;-74
2021/07/09 01:11:04;;;;;;;2.08;1.88;;;15.70;92.30;;;;;;4962233;28;20134;-74
2021/07/09 01:13:30;;;;;;;1.55;1.45;;;15.70;92.40;;;;;;4946273;28;20067;-73
2021/07/09 01:15:56;;;;;;;1.50;1.40;;;15.70;92.40;;;;;;4963547;28;20031;-73
2021/07/09 01:18:22;;;;;;;1.70;1.60;;;15.70;92.30;;;;;;4957380;28;20031;-73
2021/07/09 01:20:51;;;;;;;1.52;1.42;;;15.70;92.40;;;;;;4966495;28;20026;-72
2021/07/09 01:23:20;;;;;;;1.20;1.10;;;15.70;92.50;;;;;;4972435;28;20035;-72
2021/07/09 01:25:46;;;;;;;1.10;1.10;;;15.70;92.50;;;;;;4967865;28;20023;-72
2021/07/09 01:28:12;;;;;;;1.42;0.90;;;15.70;92.50;;;;;;4963958;28;20023;-73
2021/07/09 01:30:38;;;;;;;0.90;0.90;;;15.70;92.40;;;;;;4965054;28;20043;-72
2021/07/09 01:33:04;;;;;;;1.42;0.70;;;15.60;92.30;;;;;;4968553;28;20620;-74
2021/07/09 01:35:31;;;;;;;0.45;0.45;;;15.60;92.10;;;;;;4974741;28;20023;-73
2021/07/09 01:38:06;;;;;;;0.50;0.30;;;15.50;92.10;;;;;;4951451;28;20031;-72
2021/07/09 01:40:34;;;;;;;0.25;0.25;;;15.50;92.10;;;;;;4958312;28;20031;-73
2021/07/09 01:43:01;;;;;;;0.20;0.20;;;15.40;92.10;;;;;;4941691;28;20027;-72
2021/07/09 01:45:28;;;;;;;1.00;0.30;;;15.40;92.00;;;;;;4942138;28;20204;-73
2021/07/09 01:47:55;;;;;;;0.30;0.30;;;15.30;92.00;;;;;;4952224;28;20030;-72
2021/07/09 01:50:22;;;;;;;2.45;0.38;;;15.30;92.30;;;;;;4947740;28;20540;-73
2021/07/09 01:52:48;;;;;;;0.20;0.20;;;15.30;92.10;;;;;;4955623;28;20030;-73
2021/07/09 01:55:16;;;;;;;0.20;0.20;;;15.30;92.20;;;;;;4970925;28;20097;-74
2021/07/09 01:57:43;;;;;;;0.10;0.10;;;15.10;92.10;;;;;;4968993;28;20118;-73
2021/07/09 02:00:15;;;;;;;1.23;0.30;;;15.20;92.40;;;;;;4968931;28;20027;-73
2021/07/09 02:02:42;;;;;;;0.32;0.20;;;15.10;92.00;;;;;;4970637;28;20128;-73
2021/07/09 02:05:10;;;;;;;0.20;0.20;;;15.00;91.90;;;;;;4978702;28;20023;-74
2021/07/09 02:07:37;;;;;;;0.20;0.20;;;15.00;92.00;;;;;;4966583;28;20053;-73
2021/07/09 02:10:07;;;;;;;0.10;0.10;;;14.90;91.80;;;;;;4968002;28;20130;-73
2021/07/09 02:12:35;;;;;;;0.45;0.15;;;14.80;92.00;;;;;;4959411;28;20023;-73
2021/07/09 02:15:06;;;;;;;0.10;0.10;;;14.70;92.00;;;;;;4969480;28;20023;-73
2021/07/09 02:17:32;;;;;;;1.17;0.20;;;14.70;92.00;;;;;;4961463;28;20106;-73
2021/07/09 02:19:57;;;;;;;3.50;0.35;;;14.70;92.10;;;;;;4957099;28;20101;-73
2021/07/09 02:22:23;;;;;;;1.25;0.20;;;14.70;92.20;;;;;;4945294;28;20105;-73
2021/07/09 02:24:50;;;;;;;0.40;0.20;;;14.60;92.00;;;;;;4967960;28;20034;-73
2021/07/09 02:27:16;;;;;;;1.08;0.13;;;14.60;92.30;;;;;;4956437;28;20081;-75
2021/07/09 02:29:43;;;;;;;0.35;0.20;;;14.60;92.30;;;;;;4957485;28;20031;-74
2021/07/09 02:32:11;;;;;;;2.13;0.57;;;14.50;92.30;;;;;;4945682;28;20520;-73
2021/07/09 02:34:37;;;;;;;1.00;0.28;;;14.50;92.50;;;;;;4966144;28;20053;-71
2021/07/09 02:37:04;;;;;;;1.85;0.22;;;14.50;92.40;;;;;;4959186;28;20043;-73
2021/07/09 02:39:30;;;;;;;2.92;0.65;;;14.40;92.60;;;;;;4954434;28;20047;-73
2021/07/09 02:41:57;;;;;;;1.85;0.20;;;14.50;92.70;;;;;;4969001;28;20129;-73
2021/07/09 02:44:24;;;;;;;0.25;0.20;;;14.50;92.80;;;;;;4954354;28;20027;-73
2021/07/09 02:46:51;;;;;;;0.10;0.10;;;14.50;92.70;;;;;;4962200;28;20027;-73
2021/07/09 02:49:18;;;;;;;0.10;0.10;;;14.40;92.50;;;;;;4964447;28;20050;-72
2021/07/09 02:51:43;;;;;;;0.17;0.17;;;14.50;92.60;;;;;;4975814;28;20037;-72
2021/07/09 02:54:09;;;;;;;0.17;0.10;;;14.40;92.70;;;;;;4973500;28;20034;-72
2021/07/09 02:56:36;;;;;;;0.10;0.10;;;14.40;92.80;;;;;;4965234;28;20048;-73
2021/07/09 02:59:01;;;;;;;2.45;0.20;;;14.40;92.70;;;;;;4970917;28;20050;-73
2021/07/09 03:01:27;;;;;;;1.17;0.25;;;14.40;92.90;;;;;;4958803;28;22540;-73
2021/07/09 03:03:53;;;;;;;0.50;0.08;;;14.40;93.10;;;;;;4971107;28;20027;-73
2021/07/09 03:06:23;;;;;;;0.10;0.10;;;14.40;93.00;;;;;;4959208;28;20038;-73
2021/07/09 03:08:49;;;;;;;0.82;0.30;;;14.30;93.10;;;;;;4970509;28;20034;-71
2021/07/09 03:11:16;;;;;;;0.40;0.35;;;14.30;93.20;;;;;;4963199;28;20034;-71
2021/07/09 03:13:42;;;;;;;0.68;0.35;;;14.30;93.30;;;;;;4971401;28;20035;-72
2021/07/09 03:16:08;;;;;;;0.20;0.20;;;14.30;93.40;;;;;;4969508;28;20235;-71
2021/07/09 03:18:34;;;;;;;0.30;0.20;;;14.40;93.40;;;;;;4961021;28;20832;-72
2021/07/09 03:21:00;;;;;;;0.40;0.40;;;14.40;93.50;;;;;;4983054;28;20776;-71
2021/07/09 03:23:25;;;;;;;0.88;0.50;;;14.40;93.40;;;;;;4966639;28;20063;-72
2021/07/09 03:25:51;;;;;;;0.55;0.43;;;14.50;93.50;;;;;;4967408;28;20066;-72
2021/07/09 03:28:17;;;;;;;1.58;0.70;;;14.40;93.50;;;;;;4968971;28;20034;-71
2021/07/09 03:30:43;;;;;;;0.57;0.55;;;14.40;93.50;;;;;;4961577;28;20035;-71
2021/07/09 03:33:09;;;;;;;2.97;0.80;;;14.50;93.50;;;;;;4963074;28;20445;-72
2021/07/09 03:35:35;;;;;;;0.70;0.70;;;14.50;93.60;;;;;;4952834;28;20023;-71
2021/07/09 03:38:01;;;;;;;1.77;0.90;;;14.50;93.60;;;;;;4975019;28;20019;-71
2021/07/09 03:40:27;;;;;;;0.70;0.70;;;14.50;93.50;;;;;;4965581;28;20094;-71
2021/07/09 03:42:52;;;;;;;1.10;1.02;;;14.50;93.60;;;;;;4967462;28;20438;-72
2021/07/09 03:45:19;;;;;;;1.02;1.00;;;14.50;93.50;;;;;;4958402;28;20110;-73
2021/07/09 03:47:46;;;;;;;1.00;1.00;;;14.40;93.50;;;;;;4956238;28;20038;-74
2021/07/09 03:50:13;;;;;;;1.38;1.08;;;14.40;93.50;;;;;;4948736;28;20042;-73
2021/07/09 03:52:39;;;;;;;1.35;1.25;;;14.50;93.60;;;;;;4953832;28;20611;-73
2021/07/09 03:55:06;;;;;;;2.72;1.50;;;14.40;93.50;;;;;;4974451;28;20037;-73
2021/07/09 03:57:32;;;;;;;1.30;1.20;;;14.40;93.70;;;;;;4959018;28;20035;-74
2021/07/09 03:59:58;;;;;;;2.72;1.50;;;14.40;93.60;;;;;;4957381;28;20509;-73
2021/07/09 04:02:23;;;;;;;1.70;1.10;;;14.40;93.70;;;;;;4964927;28;20042;-72
2021/07/09 04:04:49;;;;;;;1.98;1.25;;;14.40;93.60;;;;;;4960846;28;20026;-72
2021/07/09 04:07:15;;;;;;;1.30;1.20;;;14.40;93.60;;;;;;4957133;28;20114;-71
2021/07/09 04:09:41;;;;;;;1.27;1.20;;;14.30;93.60;;;;;;4950248;28;20031;-71
2021/07/09 04:12:07;;;;;;;2.03;1.20;;;14.30;93.70;;;;;;4971895;28;20046;-71
2021/07/09 04:14:33;;;;;;;2.15;1.42;;;14.30;93.80;;;;;;4972705;28;20448;-70
2021/07/09 04:16:59;;;;;;;2.70;1.25;;;14.30;93.80;;;;;;4939885;28;20031;-72
2021/07/09 04:19:25;;;;;;;1.33;1.23;;;14.30;93.80;;;;;;4970654;28;20410;-71
2021/07/09 04:21:51;;;;;;;1.42;1.33;;;14.30;93.70;;;;;;4978579;28;20134;-72
2021/07/09 04:24:17;;;;;;;1.42;1.33;;;14.30;93.60;;;;;;4947941;28;20039;-71
2021/07/09 04:26:43;;;;;;;1.65;1.55;;;14.30;93.60;;;;;;4960042;28;20062;-73
2021/07/09 04:29:10;;;;;;;1.52;1.30;;;14.20;93.50;;;;;;4946872;28;20034;-71
2021/07/09 04:31:35;;;;;;;1.65;1.27;;;14.20;93.50;;;;;;4969795;28;20050;-72
2021/07/09 04:34:01;;;;;;;1.30;1.20;;;14.20;93.60;;;;;;4967003;28;20169;-72
2021/07/09 04:36:27;;;;;;;1.52;1.40;;;14.20;93.60;;;;;;4960355;28;20378;-72
2021/07/09 04:38:53;;;;;;;1.52;1.40;;;14.30;93.50;;;;;;4972216;28;20474;-72
2021/07/09 04:41:19;;;;;;;2.38;1.70;;;14.30;93.40;;;;;;4938660;28;20042;-73
2021/07/09 04:43:45;;;;;;;1.63;1.48;;;14.30;93.50;;;;;;4954697;28;20504;-72
2021/07/09 04:46:14;;;;;;;1.55;1.45;;;14.30;93.50;;;;;;4977167;28;20043;-72
2021/07/09 04:48:41;;;;;;;1.60;1.50;;;14.20;93.40;;;;;;4944211;28;20123;-72
2021/07/09 04:51:06;;;;;;;1.50;1.40;;;14.20;93.30;;;;;;4974465;28;20201;-72
2021/07/09 04:53:32;;;;;;;4.30;1.52;;;14.30;93.40;;;;;;4963693;28;20027;-73
2021/07/09 04:55:58;;;;;;;1.60;1.30;;;14.20;93.50;;;;;;4964632;28;20086;-73
2021/07/09 04:58:23;;;;;;;2.58;1.50;;;14.30;93.40;;;;;;4952795;28;20041;-73
2021/07/09 05:00:50;;;;;;;1.48;1.30;;;14.30;93.40;;;;;;4968927;28;20049;-73
2021/07/09 05:03:15;;;;;;;1.38;1.17;;;14.20;93.20;;;;;;4967931;28;20023;-73
2021/07/09 05:05:41;;;;;;;2.17;1.30;;;14.20;93.30;;;;;;4979943;28;20010;-73
2021/07/09 05:08:07;;;;;;;2.42;1.42;;;14.20;93.30;;;;;;4963269;28;20023;-73
2021/07/09 05:10:33;;;;;;;2.15;1.30;;;14.30;93.40;;;;;;4952944;28;20461;-72
2021/07/09 05:12:59;;;;;;;1.67;1.20;;;14.30;93.50;;;;;;4950912;28;20037;-72
2021/07/09 05:15:25;;;;;;;3.38;1.52;;;14.20;93.40;;;;;;4965111;28;20065;-72
2021/07/09 05:17:51;;;;;;;1.50;1.40;;;14.20;93.40;;;;;;4975505;28;20115;-73
2021/07/09 05:20:17;;;;;;;1.63;1.40;;;14.20;93.40;;;;;;4946413;28;20399;-73
2021/07/09 05:22:43;;;;;;;1.85;1.35;;;14.30;93.50;;;;;;4962375;28;20042;-73
2021/07/09 05:25:09;;;;;;;1.83;1.73;;;14.30;93.40;;;;;;4974553;28;20409;-73
2021/07/09 05:27:35;;;;;;;2.40;1.35;;;14.30;93.60;;;;;;4948332;28;20766;-72
2021/07/09 05:30:02;;;;;;;1.42;1.33;;;14.30;93.50;;;;;;4970093;28;20027;-72
2021/07/09 05:32:28;;;;;;;3.28;1.50;;;14.30;93.50;;;;;;4934363;28;20043;-72
2021/07/09 05:34:55;;;;;;;1.70;1.60;;;14.30;93.40;;;;;;4958380;28;20041;-73
2021/07/09 05:37:22;;;;;;;1.23;1.10;;;14.30;93.40;;;;;;4931500;28;20035;-72
2021/07/09 05:39:49;;;;;;;1.42;1.33;;;14.30;93.50;;;;;;4954499;28;21350;-73
2021/07/09 05:42:15;;;;;;;1.38;1.27;;;14.30;93.50;;;;;;4941478;28;20035;-74
2021/07/09 05:44:42;;;;;;;2.58;1.35;;;14.30;93.40;;;;;;4946637;28;20035;-73
2021/07/09 05:47:09;;;;;;;2.47;1.40;;;14.30;93.40;;;;;;4948698;28;20535;-72
2021/07/09 05:49:35;;;;;;;1.85;1.40;;;14.30;93.50;;;;;;4961708;28;20090;-72
2021/07/09 05:52:01;;;;;;;1.55;1.40;;;14.30;93.40;;;;;;4964145;28;20027;-72
2021/07/09 05:54:28;;;;;;;2.25;1.60;;;14.40;93.60;;;;;;4936850;28;20035;-72
2021/07/09 05:56:53;;;;;;;1.63;1.40;;;14.30;93.60;;;;;;4938937;28;20038;-71
2021/07/09 05:59:19;;;;;;;2.58;1.58;;;14.30;93.50;;;;;;4978082;28;20038;-72
2021/07/09 06:01:45;;;;;;;1.70;1.60;;;14.30;93.60;;;;;;4964318;28;20462;-72
2021/07/09 06:04:13;;;;;;;1.73;1.42;;;14.30;93.50;;;;;;4964028;28;20038;-73
2021/07/09 06:06:39;;;;;;;;;;;14.30;93.60;;;;;;4946005;28;20042;-71
2021/07/09 06:09:05;;;;;;;1.95;1.10;;;14.30;93.50;;;;;;4952615;28;19918;-71
2021/07/09 06:11:31;;;;;;;1.77;1.45;;;14.30;93.60;;;;;;4937461;28;20031;-71
2021/07/09 06:13:57;;;;;;;1.73;1.63;;;14.30;93.60;;;;;;4961358;28;20062;-71
2021/07/09 06:16:23;;;;;;;1.60;1.48;;;14.30;93.60;;;;;;4966464;28;20078;-71
2021/07/09 06:18:50;;;;;;;2.22;1.58;;;14.30;93.70;;;;;;4932649;28;20049;-71
2021/07/09 06:21:17;;;;;;;4.10;1.77;;;14.30;93.60;;;;;;4938909;28;20037;-71
2021/07/09 06:23:43;;;;;;;1.70;1.60;;;14.30;93.70;;;;;;4971798;28;20044;-71
2021/07/09 06:26:09;;;;;;;1.77;1.67;;;14.30;93.60;;;;;;4962308;28;20091;-71
2021/07/09 06:28:35;;;;;;;1.60;1.50;;;14.40;93.60;;;;;;4965296;28;20054;-71
2021/07/09 06:31:02;;;;;;;1.40;1.30;;;14.40;93.60;;;;;;4970090;28;20419;-73
2021/07/09 06:33:28;;;;;;;1.70;1.60;;;14.40;93.70;;;;;;4959655;28;20039;-71
2021/07/09 06:35:54;;;;;;;1.40;1.30;;;14.40;93.60;;;;;;4955529;28;20031;-71
2021/07/09 06:38:22;;;;;;;1.70;1.60;;;14.40;93.50;;;;;;4960050;28;20043;-71
2021/07/09 06:40:48;;;;;;;1.40;1.30;;;14.50;93.50;;;;;;4953408;28;20019;-72
2021/07/09 06:43:20;;;;;;;1.88;1.63;;;14.50;93.60;;;;;;4973132;28;20061;-71
2021/07/09 06:45:46;;;;;;;1.70;1.60;;;14.50;93.50;;;;;;4957250;28;20023;-73
2021/07/09 06:48:21;;;;;;;2.75;1.67;;;14.50;93.60;;;;;;4970790;28;20429;-71
2021/07/09 06:50:46;;;;;;;2.78;1.60;;;14.50;93.40;;;;;;4970425;28;20033;-72
2021/07/09 06:53:12;;;;;;;1.98;1.65;;;14.50;93.50;;;;;;4974220;28;20098;-71
2021/07/09 06:55:38;;;;;;;2.30;2.10;;;14.60;93.60;;;;;;4957451;28;20030;-71
2021/07/09 06:58:04;;;;;;;1.70;1.60;;;14.60;93.40;;;;;;4960489;28;20109;-71
2021/07/09 07:00:30;;;;;;;2.83;1.80;;;14.50;93.50;;;;;;4947618;28;20031;-71
2021/07/09 07:02:56;;;;;;;2.10;2.00;;;14.50;93.70;;;;;;4969785;28;20037;-72
2021/07/09 07:05:22;;;;;;;3.60;2.25;;;14.60;93.70;;;;;;4982453;28;20574;-71
2021/07/09 07:07:51;;;;;;;3.08;2.20;;;14.50;93.70;;;;;;4974271;28;20073;-72
2021/07/09 07:10:17;;;;;;;3.08;2.13;;;14.60;93.70;;;;;;4960374;28;20034;-71
2021/07/09 07:12:43;;;;;;;1.90;1.77;;;14.60;93.70;;;;;;4941303;28;20042;-72
2021/07/09 07:15:10;;;;;;;3.42;2.20;;;14.70;93.70;;;;;;4956581;28;20163;-71
2021/07/09 07:17:39;;;;;;;2.30;2.10;;;14.60;93.70;;;;;;4955465;28;20129;-70
2021/07/09 07:20:06;;;;;;;2.20;1.98;;;14.70;93.70;;;;;;4953986;28;20030;-71
2021/07/09 07:22:32;;;;;;;2.20;2.00;;;14.70;93.60;;;;;;4945196;28;20486;-70
2021/07/09 07:24:58;;;;;;;3.15;2.70;;;14.70;93.70;;;;;;4946805;28;20067;-71
2021/07/09 07:27:27;;;;;;;2.30;2.10;;;14.70;93.30;;;;;;4943287;28;20031;-71
2021/07/09 07:29:58;;;;;;;2.13;1.80;;;14.70;93.40;;;;;;4973554;28;20054;-71
2021/07/09 07:32:25;;;;;;;2.25;2.05;;;14.70;93.30;;;;;;4951632;28;20592;-70
2021/07/09 07:34:51;;;;;;;2.50;2.30;;;14.70;93.40;;;;;;4962896;28;20117;-70
2021/07/09 07:37:17;;;;;;;5.28;1.98;;;14.70;93.30;;;;;;4969636;28;20058;-68
2021/07/09 07:39:42;;;;;;;2.00;1.90;;;14.70;93.30;;;;;;4962323;28;20030;-70
2021/07/09 07:42:08;;;;;;;1.98;1.88;;;14.70;93.50;;;;;;4965362;28;20065;-71
2021/07/09 07:44:34;;;;;;;2.25;2.10;;;14.70;93.60;;;;;;4981286;28;20026;-70
2021/07/09 07:47:00;;;;;;;2.03;1.58;;;14.70;93.70;;;;;;4948515;28;20110;-70
2021/07/09 07:49:29;;;;;;;2.30;1.67;;;14.70;93.60;;;;;;4952038;28;20039;-69
2021/07/09 07:51:55;;;;;;;1.85;1.60;;;14.70;93.60;;;;;;4968008;28;20034;-72
2021/07/09 07:54:20;;;;;;;2.47;2.28;;;14.70;93.70;;;;;;4964082;28;20027;-71
2021/07/09 07:56:46;;;;;;;2.78;1.77;;;14.70;93.80;;;;;;4950931;28;20027;-71
2021/07/09 07:59:12;;;;;;;1.92;1.73;;;14.70;93.60;;;;;;4950934;28;20729;-71
2021/07/09 08:01:38;;;;;;;2.08;1.80;;;14.80;93.60;;;;;;4978814;28;20439;-71
2021/07/09 08:04:06;;;;;;;2.03;1.85;;;14.80;93.80;;;;;;4960319;28;20022;-69
2021/07/09 08:06:32;;;;;;;2.65;1.80;;;14.80;93.50;;;;;;4976327;28;20031;-70
2021/07/09 08:08:59;;;;;;;1.65;1.55;;;14.80;93.50;;;;;;4956687;28;20051;-72
2021/07/09 08:11:24;;;;;;;2.17;1.70;;;14.80;93.50;;;;;;4955200;28;20085;-71
2021/07/09 08:13:50;;;;;;;2.20;2.08;;;14.80;93.40;;;;;;4953880;28;20481;-70
2021/07/09 08:16:17;;;;;;;2.13;1.95;;;14.90;93.70;;;;;;4946979;28;20031;-71
2021/07/09 08:18:42;;;;;;;1.83;1.73;;;14.90;93.50;;;;;;4961624;28;20072;-71
2021/07/09 08:21:08;;;;;;;2.33;2.13;;;14.90;93.70;;;;;;4951304;28;20094;-71
2021/07/09 08:23:34;;;;;;;2.22;2.03;;;14.90;93.70;;;;;;4971749;28;20449;-71
2021/07/09 08:25:59;;;;;;;2.78;2.47;;;15.00;93.80;;;;;;4955242;28;20038;-70
2021/07/09 08:28:26;;;;;;;2.42;2.22;;;15.00;93.40;;;;;;4972610;28;20037;-71
2021/07/09 08:30:52;;;;;;;2.83;2.42;;;15.00;93.70;;;;;;4959829;28;20102;-72
2021/07/09 08:33:18;;;;;;;2.40;2.20;;;15.10;93.80;;;;;;4964360;28;20054;-71
2021/07/09 08:35:44;;;;;;;2.50;2.30;;;15.10;94.00;;;;;;4946469;28;20062;-71
2021/07/09 08:38:10;;;;;;;2.00;1.90;;;15.10;93.80;;;;;;4971520;28;20030;-71
2021/07/09 08:40:36;;;;;;;2.45;2.03;;;15.20;93.90;;;;;;4955600;28;21474;-71
2021/07/09 08:43:03;;;;;;;3.88;2.00;;;15.20;94.00;;;;;;4966580;28;20058;-71
2021/07/09 08:45:28;;;;;;;1.85;1.75;;;15.30;93.90;;;;;;4971446;28;20031;-71
2021/07/09 08:47:55;;;;;;;2.13;1.92;;;15.30;93.60;;;;;;4972668;28;20184;-70
2021/07/09 08:50:21;;;;;;;1.80;1.70;;;15.20;93.50;;;;;;4969662;28;20078;-69
2021/07/09 08:52:47;;;;;;;1.63;1.45;;;15.30;93.60;;;;;;4975086;28;20034;-69
2021/07/09 08:55:13;;;;;;;2.10;1.90;;;15.20;93.50;;;;;;4967049;28;20050;-72
2021/07/09 08:57:43;;;;;;;2.28;1.75;;;15.30;93.40;;;;;;4964332;28;20524;-70
2021/07/09 09:00:21;;;;;;;3.08;1.83;;;15.30;93.60;;;;;;4948331;28;20101;-71
2021/07/09 09:02:48;;;;;;;3.13;2.10;;;15.30;93.50;;;;;;4962958;28;20035;-71
2021/07/09 09:05:25;;;;;;;2.85;2.10;;;15.30;93.70;;;;;;4972396;28;20530;-71
2021/07/09 09:08:05;;;;;;;2.22;1.98;;;15.20;93.30;;;;;;4965350;28;20035;-71
2021/07/09 09:10:38;;;;;;;2.25;2.03;;;15.20;93.40;;;;;;4975015;28;20023;-71
2021/07/09 09:13:10;;;;;;;1.98;1.85;;;15.20;93.30;;;;;;4974990;28;20035;-71
2021/07/09 09:15:38;;;;;;;3.05;2.20;;;15.20;93.60;;;;;;4978596;28;20039;-72
2021/07/09 09:18:29;;;;;;;2.38;2.00;;;15.20;93.50;;;;;;4953358;28;20038;-70
2021/07/09 09:21:12;;;;;;;3.90;2.20;;;15.30;93.70;;;;;;4979558;28;20058;-72
2021/07/09 09:23:52;;;;;;;3.15;2.03;;;15.30;94.10;;;;;;4966251;28;20034;-71
2021/07/09 09:26:49;;;;;;;2.42;2.22;;;15.30;93.40;;;;;;4977488;28;20389;-71
2021/07/09 09:29:34;;;;;;;2.28;2.10;;;15.40;93.60;;;;;;4968836;28;20456;-69
2021/07/09 09:32:06;;;;;;;2.58;2.20;;;15.40;93.30;;;;;;4958426;28;20150;-71
2021/07/09 09:34:45;;;;;;;3.60;2.50;;;15.40;93.40;;;;;;4967810;28;20440;-71
2021/07/09 09:37:14;;;;;;;2.30;2.10;;;15.40;93.80;;;;;;4960741;28;20023;-70
2021/07/09 09:39:45;;;;;;;4.47;2.60;;;15.50;93.80;;;;;;4967018;28;20035;-71
2021/07/09 09:42:18;;;;;;;2.80;2.45;;;15.60;94.00;;;;;;4952660;28;20178;-72
2021/07/09 09:44:49;;;;;;;3.03;2.72;;;15.60;93.30;;;;;;4970714;28;20030;-71
2021/07/09 09:47:18;;;;;;;3.90;2.65;;;15.60;93.40;;;;;;4956076;28;20478;-71
2021/07/09 09:49:44;;;;;;;3.40;3.10;;;15.60;93.20;;;;;;4972795;28;20051;-71
2021/07/09 09:52:11;;;;;;;4.90;2.95;;;15.60;93.50;;;;;;4964993;28;20039;-72
2021/07/09 09:54:37;;;;;;;3.47;3.00;;;15.60;93.60;;;;;;4972446;28;20041;-70
2021/07/09 09:57:06;;;;;;;3.03;2.78;;;15.60;93.40;;;;;;4956007;28;20484;-71
2021/07/09 09:59:32;;;;;;;3.97;2.83;;;15.60;93.30;;;;;;4955296;28;20109;-70
2021/07/09 10:02:05;;;;;;;3.13;2.92;;;15.60;93.30;;;;;;4950179;28;20038;-71
2021/07/09 10:04:32;;;;;;;3.15;2.85;;;15.70;93.40;;;;;;4969121;28;20137;-71
2021/07/09 10:06:59;;;;;;;4.70;3.15;;;15.70;93.40;;;;;;4965002;28;20027;-71
2021/07/09 10:09:26;;;;;;;6.32;3.30;;;15.70;93.40;;;;;;4957489;28;20035;-72
2021/07/09 10:11:54;;;;;;;4.13;3.38;;;15.80;93.60;;;;;;4950548;28;20509;-71
2021/07/09 10:14:26;;;;;;;4.13;3.28;;;15.80;93.30;;;;;;4972739;28;20038;-71
2021/07/09 10:16:57;;;;;;;3.83;3.38;;;15.80;93.50;;;;;;4974336;28;20063;-71
2021/07/09 10:19:49;;;;;;;3.90;3.50;;;15.80;93.40;;;;;;4959262;28;20128;-71
2021/07/09 10:22:15;;;;;;;6.15;3.58;;;15.90;93.60;;;;;;4960533;28;20077;-71
2021/07/09 10:24:45;;;;;;;4.63;4.13;;;15.90;93.80;;;;;;4979944;28;20074;-71
2021/07/09 10:27:14;;;;;;;5.10;3.40;;;16.00;93.70;;;;;;4964209;28;20065;-71
2021/07/09 10:29:44;;;;;;;;;;;15.90;93.00;;;;;;4980914;28;20022;-71
2021/07/09 10:32:09;;;;;;;3.92;3.38;;;15.90;93.10;;;;;;4967846;28;20376;-71
2021/07/09 10:34:39;;;;;;;4.25;3.40;;;15.90;93.00;;;;;;4980105;28;20054;-71
2021/07/09 10:37:18;;;;;;;4.97;3.80;;;15.90;93.40;;;;;;4966299;28;20485;-72
2021/07/09 10:39:49;;;;;;;3.97;3.55;;;15.90;93.40;;;;;;4968648;28;20023;-72
2021/07/09 10:42:18;;;;;;;5.05;3.75;;;16.00;93.50;;;;;;4950974;28;22532;-71
2021/07/09 10:45:20;;;;;;;4.65;3.95;;;16.00;93.20;;;;;;4973088;28;20101;-71
2021/07/09 10:47:52;;;;;;;6.18;3.97;;;16.00;93.30;;;;;;4972713;28;20026;-71
2021/07/09 10:50:34;;;;;;;4.15;3.75;;;16.00;93.20;;;;;;4953734;28;20034;-71
2021/07/09 10:53:02;;;;;;;4.13;3.72;;;16.00;93.40;;;;;;4947578;28;20026;-70
2021/07/09 10:55:28;;;;;;;6.38;3.67;;;16.00;93.40;;;;;;4977282;28;20061;-71
2021/07/09 10:58:06;;;;;;;6.47;3.95;;;16.00;92.80;;;;;;4968973;28;20070;-71
2021/07/09 11:00:48;;;;;;;4.35;3.80;;;16.00;93.10;;;;;;4951137;28;20034;-71
2021/07/09 11:03:37;;;;;;;5.03;3.35;;;16.10;93.40;;;;;;4959886;28;20026;-69
2021/07/09 11:06:14;;;;;;;5.43;3.90;;;16.10;93.00;;;;;;4961815;28;20072;-71
2021/07/09 11:08:50;;;;;;;3.35;3.00;;;16.10;92.60;;;;;;4974578;28;20139;-71
2021/07/09 11:11:17;;;;;;;4.55;3.67;;;16.00;91.50;;;;;;4962031;28;20129;-71
2021/07/09 11:13:45;;;;;;;5.00;3.13;;;16.00;91.80;;;;;;4958070;28;20121;-71
2021/07/09 11:16:32;;;;;;;5.22;3.25;;;16.00;91.70;;;;;;4956269;28;20023;-69
2021/07/09 11:19:03;;;;;;;3.50;2.88;;;16.00;91.80;;;;;;4976281;28;20031;-73
2021/07/09 11:21:34;;;;;;;4.28;3.88;;;16.20;92.00;;;;;;4964171;28;20474;-73
2021/07/09 11:24:02;;;;;;;4.22;3.50;;;16.30;92.70;;;;;;4959262;28;20117;-71
2021/07/09 11:26:36;;;;;;;5.07;4.57;;;16.40;92.80;;;;;;4964171;28;20030;-71
2021/07/09 11:29:45;;;;;;;4.95;4.05;;;16.50;92.20;;;;;;4952484;28;20096;-71
2021/07/09 11:32:15;;;;;;;4.97;4.03;;;16.60;92.20;;;;;;4974143;28;20038;-70
2021/07/09 11:34:46;;;;;;;5.60;3.92;;;16.60;91.90;;;;;;4978256;28;20026;-70
2021/07/09 11:37:33;;;;;;;4.80;3.75;;;16.70;92.50;;;;;;4951463;28;20045;-71
2021/07/09 11:40:02;;;;;;;6.78;4.13;;;16.70;92.50;;;;;;4973602;28;20035;-71
2021/07/09 11:42:33;;;;;;;6.85;4.38;;;16.80;92.70;;;;;;4967160;28;20030;-71
2021/07/09 11:45:03;;;;;;;5.47;4.05;;;16.80;92.60;;;;;;4958946;28;20031;-71
2021/07/09 11:47:31;;;;;;;6.05;4.88;;;16.80;92.10;;;;;;4979166;28;20055;-70
2021/07/09 11:50:00;;;;;;;6.15;4.45;;;16.80;92.20;;;;;;4948008;28;20046;-72
2021/07/09 11:52:29;;;;;;;4.00;3.63;;;16.90;92.40;;;;;;4960641;28;20034;-72
2021/07/09 11:54:58;;;;;;;4.05;3.60;;;17.00;91.60;;;;;;4955594;28;20504;-69
2021/07/09 11:57:24;;;;;;;4.57;3.83;;;17.00;91.70;;;;;;4972682;28;20033;-71
2021/07/09 11:59:52;;;;;;;5.22;4.07;;;17.00;90.80;;;;;;4967616;28;20023;-71
2021/07/09 12:02:29;;;;;;;4.15;3.75;;;17.00;90.70;;;;;;4950243;28;20097;-73
2021/07/09 12:04:59;;;;;;;5.07;3.78;;;17.00;91.20;;;;;;4941167;28;20122;-71
2021/07/09 12:07:38;;;;;;;4.35;3.95;;;17.00;90.80;;;;;;4952352;28;20077;-72
2021/07/09 12:10:09;;;;;;;5.30;3.90;;;17.10;91.50;;;;;;4962001;28;20089;-71
2021/07/09 12:12:38;;;;;;;5.40;4.10;;;17.10;91.50;;;;;;4946596;28;20029;-71
2021/07/09 12:15:06;;;;;;;4.30;3.70;;;17.10;91.30;;;;;;4964804;28;20027;-71
2021/07/09 12:17:34;;;;;;;5.40;4.03;;;17.10;91.20;;;;;;4970677;28;20029;-70
2021/07/09 12:20:04;;;;;;;4.20;3.80;;;17.20;90.90;;;;;;4958794;28;20023;-70
2021/07/09 12:22:43;;;;;;;4.93;3.92;;;17.30;91.40;;;;;;4966015;28;20031;-71
2021/07/09 12:25:23;;;;;;;5.28;3.88;;;17.30;90.80;;;;;;4955694;28;20027;-70
2021/07/09 12:27:50;;;;;;;5.13;3.60;;;17.30;90.50;;;;;;4950178;28;20018;-71
2021/07/09 12:30:21;;;;;;;7.32;3.92;;;17.30;89.90;;;;;;4953182;28;20027;-71
2021/07/09 12:33:01;;;;;;;5.68;4.10;;;17.40;91.00;;;;;;4964672;28;20469;-70
2021/07/09 12:35:29;;;;;;;4.07;3.70;;;17.50;91.10;;;;;;4954316;28;20722;-70
2021/07/09 12:38:03;;;;;;;;;;;17.50;90.00;;;;;;4967470;28;20065;-71
2021/07/09 12:40:36;;;;;;;4.10;3.70;;;17.40;89.10;;;;;;4952674;28;19906;-72
2021/07/09 12:43:29;;;;;;;4.13;3.00;;;17.30;87.90;;;;;;4966117;28;20111;-73
2021/07/09 12:45:54;;;;;;;3.92;3.53;;;17.20;88.20;;;;;;4970945;28;20078;-72
2021/07/09 12:48:35;;;;;;;4.35;3.55;;;17.20;87.60;;;;;;4978253;28;20027;-71
2021/07/09 12:51:23;;;;;;;3.80;3.45;;;17.20;88.50;;;;;;4972872;28;20023;-72
2021/07/09 12:54:08;;;;;;;4.00;3.60;;;17.20;90.00;;;;;;4941987;28;20081;-71
2021/07/09 12:56:39;;;;;;;4.22;3.83;;;17.20;89.80;;;;;;4956790;28;20066;-72